Check out our new PWSWeather beta!
PWSweather.com
Personal Weather Stations
Station Observations
SHAHALMS1
Eftra, Falkenberg, HA

EftraFalkenberg, HA

Lat: 56.85, Lon: 12.65

Elevation: 140

Station Type:

http://hem.passagen.se/risarp101

High Low Average
Temperature 71.4°F21.9°C 62.6°F17.0°C 65.9°F18.8°C
Dew Point 62.0°F16.7°C 53.7°F12.1°C 58.1°F14.5°C
Winds 12.6 mph 20.3 kmh 4.5 mph 7.2 kmh 8.0 mph SW12.9 kmh SW
Wind Gusts 45.8 mph73.7 kmh 7.9 mph12.7 kmh 20.0 mph32.2 kmh
Humidity 95% 61% 77%
Pressure 29.86 in1011.2 mb 29.68 in1005.1 mb -
Precipitation 0.33 in8.4 mm - -
Hour Temp Dew Point Humidity Winds Wind Gusts Pressure Precip Precip Rate Daily Precip Total
12:00 AM 63.9°F17.7°C 60.2°F15.7°C 88% 6.3 mph S10.1 kmh S 12.2 mph19.6 kmh 29.68 in1005.1 mb 0.00 in0.0 mm 0.00 in0.0 mm 0.00 in0.0 mm
12:10 AM 64.0°F17.8°C 60.4°F15.8°C 88% 8.4 mph S13.5 kmh S 17.2 mph27.7 kmh 29.68 in1005.1 mb 0.00 in0.0 mm 0.00 in0.0 mm 0.00 in0.0 mm
12:20 AM 64.2°F17.9°C 60.6°F15.9°C 88% 5.6 mph SSW9.0 kmh SSW 15.0 mph24.1 kmh 29.68 in1005.1 mb 0.00 in0.0 mm 0.00 in0.0 mm 0.00 in0.0 mm
12:30 AM 64.6°F18.1°C 60.6°F15.9°C 87% 6.9 mph S11.1 kmh S 20.8 mph33.5 kmh 29.71 in1006.1 mb 0.00 in0.0 mm 0.00 in0.0 mm 0.00 in0.0 mm
12:40 AM 64.4°F18.0°C 60.8°F16.0°C 88% 10.0 mph S16.1 kmh S 26.8 mph43.1 kmh 29.71 in1006.1 mb 0.00 in0.0 mm 0.00 in0.0 mm 0.00 in0.0 mm
12:50 AM 63.5°F17.5°C 60.2°F15.7°C 89% 9.6 mph S15.4 kmh S 24.3 mph39.1 kmh 29.71 in1006.1 mb 0.00 in0.0 mm 0.00 in0.0 mm 0.00 in0.0 mm
01:00 AM 63.3°F17.4°C 60.3°F15.7°C 90% 7.6 mph S12.2 kmh S 20.8 mph33.5 kmh 29.71 in1006.1 mb 0.00 in0.0 mm 0.00 in0.0 mm 0.00 in0.0 mm
01:10 AM 63.5°F17.5°C 60.8°F16.0°C 91% 7.6 mph SW12.2 kmh SW 17.2 mph27.7 kmh 29.71 in1006.1 mb 0.00 in0.0 mm 0.00 in0.0 mm 0.00 in0.0 mm
01:20 AM 63.9°F17.7°C 60.9°F16.1°C 90% 9.0 mph SSW14.5 kmh SSW 23.6 mph38.0 kmh 29.74 in1007.1 mb 0.00 in0.0 mm 0.00 in0.0 mm 0.00 in0.0 mm
01:30 AM 63.5°F17.5°C 60.8°F16.0°C 91% 10.5 mph SSW16.9 kmh SSW 24.3 mph39.1 kmh 29.71 in1006.1 mb 0.05 in1.3 mm 0.30 in7.6 mm 0.05 in1.3 mm
01:40 AM 63.3°F17.4°C 61.0°F16.1°C 92% 6.6 mph S10.6 kmh S 16.5 mph26.6 kmh 29.71 in1006.1 mb 0.05 in1.3 mm 0.00 in0.0 mm 0.05 in1.3 mm
01:50 AM 63.1°F17.3°C 61.1°F16.2°C 93% 8.3 mph S13.4 kmh S 19.3 mph31.1 kmh 29.71 in1006.1 mb 0.05 in1.3 mm 0.00 in0.0 mm 0.05 in1.3 mm
02:00 AM 63.1°F17.3°C 61.1°F16.2°C 93% 11.5 mph S18.5 kmh S 45.8 mph73.7 kmh 29.71 in1006.1 mb 0.09 in2.3 mm 0.05 in1.3 mm 0.09 in2.3 mm
02:10 AM 63.1°F17.3°C 61.4°F16.3°C 94% 8.5 mph SW13.7 kmh SW 24.3 mph39.1 kmh 29.71 in1006.1 mb 0.19 in4.8 mm 0.60 in15.2 mm 0.18 in4.6 mm
02:20 AM 63.1°F17.3°C 61.4°F16.3°C 94% 9.6 mph W15.4 kmh W 24.3 mph39.1 kmh 29.71 in1006.1 mb 0.23 in5.8 mm 0.24 in6.1 mm 0.23 in5.8 mm
02:30 AM 63.0°F17.2°C 61.2°F16.2°C 94% 12.6 mph WSW20.3 kmh WSW 24.7 mph39.8 kmh 29.71 in1006.1 mb 0.19 in4.8 mm 0.00 in0.0 mm 0.23 in5.8 mm
02:40 AM 63.0°F17.2°C 61.5°F16.4°C 95% 10.7 mph SSW17.2 kmh SSW 31.9 mph51.3 kmh 29.71 in1006.1 mb 0.19 in4.8 mm 0.00 in0.0 mm 0.23 in5.8 mm
02:50 AM 63.0°F17.2°C 61.5°F16.4°C 95% 10.6 mph S17.1 kmh S 28.3 mph45.5 kmh 29.71 in1006.1 mb 0.19 in4.8 mm 0.00 in0.0 mm 0.23 in5.8 mm
03:00 AM 63.1°F17.3°C 61.7°F16.5°C 95% 8.0 mph SSW12.9 kmh SSW 23.3 mph37.5 kmh 29.71 in1006.1 mb 0.14 in3.6 mm 0.00 in0.0 mm 0.23 in5.8 mm
03:10 AM 63.1°F17.3°C 61.7°F16.5°C 95% 6.9 mph SW11.1 kmh SW 16.1 mph25.9 kmh 29.71 in1006.1 mb 0.05 in1.3 mm 0.00 in0.0 mm 0.23 in5.8 mm
03:20 AM 63.5°F17.5°C 62.0°F16.7°C 95% 8.2 mph S13.2 kmh S 21.1 mph34.0 kmh 29.71 in1006.1 mb 0.00 in0.0 mm 0.00 in0.0 mm 0.23 in5.8 mm
03:30 AM 63.5°F17.5°C 62.0°F16.7°C 95% 7.7 mph SW12.4 kmh SW 18.3 mph29.5 kmh 29.71 in1006.1 mb 0.00 in0.0 mm 0.00 in0.0 mm 0.23 in5.8 mm
03:40 AM 63.5°F17.5°C 62.0°F16.7°C 95% 8.8 mph SW14.2 kmh SW 27.9 mph44.9 kmh 29.71 in1006.1 mb 0.00 in0.0 mm 0.00 in0.0 mm 0.23 in5.8 mm
03:50 AM 63.7°F17.6°C 61.9°F16.6°C 94% 7.8 mph W12.6 kmh W 20.8 mph33.5 kmh 29.71 in1006.1 mb 0.00 in0.0 mm 0.00 in0.0 mm 0.23 in5.8 mm
04:00 AM 63.7°F17.6°C 61.9°F16.6°C 94% 7.8 mph SW12.6 kmh SW 22.5 mph36.2 kmh 29.71 in1006.1 mb 0.00 in0.0 mm 0.00 in0.0 mm 0.23 in5.8 mm
04:10 AM 63.7°F17.6°C 61.9°F16.6°C 94% 7.5 mph SSW12.1 kmh SSW 19.7 mph31.7 kmh 29.71 in1006.1 mb 0.00 in0.0 mm 0.00 in0.0 mm 0.23 in5.8 mm
04:20 AM 63.5°F17.5°C 61.4°F16.3°C 93% 8.7 mph WSW14.0 kmh WSW 20.8 mph33.5 kmh 29.71 in1006.1 mb 0.00 in0.0 mm 0.00 in0.0 mm 0.23 in5.8 mm
04:30 AM 63.5°F17.5°C 61.1°F16.2°C 92% 10.1 mph SSW16.3 kmh SSW 17.2 mph27.7 kmh 29.71 in1006.1 mb 0.00 in0.0 mm 0.00 in0.0 mm 0.23 in5.8 mm
04:40 AM 63.5°F17.5°C 60.8°F16.0°C 91% 7.7 mph SW12.4 kmh SW 20.8 mph33.5 kmh 29.71 in1006.1 mb 0.00 in0.0 mm 0.00 in0.0 mm 0.23 in5.8 mm
04:50 AM 63.5°F17.5°C 60.5°F15.8°C 90% 9.7 mph SW15.6 kmh SW 17.2 mph27.7 kmh 29.71 in1006.1 mb 0.00 in0.0 mm 0.00 in0.0 mm 0.23 in5.8 mm
05:00 AM 63.5°F17.5°C 60.5°F15.8°C 90% 7.5 mph WSW12.1 kmh WSW 16.8 mph27.0 kmh 29.68 in1005.1 mb 0.00 in0.0 mm 0.00 in0.0 mm 0.23 in5.8 mm
05:10 AM 63.7°F17.6°C 61.0°F16.1°C 91% 8.5 mph SW13.7 kmh SW 21.1 mph34.0 kmh 29.68 in1005.1 mb 0.00 in0.0 mm 0.00 in0.0 mm 0.23 in5.8 mm
05:20 AM 63.9°F17.7°C 60.9°F16.1°C 90% 7.2 mph S11.6 kmh S 20.0 mph32.2 kmh 29.71 in1006.1 mb 0.00 in0.0 mm 0.00 in0.0 mm 0.23 in5.8 mm
05:30 AM 64.0°F17.8°C 61.0°F16.1°C 90% 9.4 mph S15.1 kmh S 21.1 mph34.0 kmh 29.71 in1006.1 mb 0.00 in0.0 mm 0.00 in0.0 mm 0.23 in5.8 mm
05:40 AM 63.1°F17.3°C 59.8°F15.4°C 89% 8.6 mph SW13.8 kmh SW 17.2 mph27.7 kmh 29.71 in1006.1 mb 0.00 in0.0 mm 0.00 in0.0 mm 0.23 in5.8 mm
05:50 AM 62.8°F17.1°C 59.5°F15.3°C 89% 7.2 mph SSW11.6 kmh SSW 13.6 mph21.9 kmh 29.71 in1006.1 mb 0.00 in0.0 mm 0.00 in0.0 mm 0.23 in5.8 mm
06:00 AM 62.8°F17.1°C 60.1°F15.6°C 91% 7.5 mph S12.1 kmh S 15.7 mph25.3 kmh 29.71 in1006.1 mb 0.00 in0.0 mm 0.00 in0.0 mm 0.23 in5.8 mm
06:10 AM 62.6°F17.0°C 59.9°F15.5°C 91% 8.6 mph SSW13.8 kmh SSW 15.4 mph24.8 kmh 29.71 in1006.1 mb 0.00 in0.0 mm 0.00 in0.0 mm 0.23 in5.8 mm
06:20 AM 62.6°F17.0°C 59.9°F15.5°C 91% 5.4 mph SW8.7 kmh SW 15.4 mph24.8 kmh 29.71 in1006.1 mb 0.00 in0.0 mm 0.00 in0.0 mm 0.23 in5.8 mm
06:30 AM 62.8°F17.1°C 60.4°F15.8°C 92% 4.5 mph WSW7.2 kmh WSW 16.5 mph26.6 kmh 29.71 in1006.1 mb 0.05 in1.3 mm 0.30 in7.6 mm 0.28 in7.1 mm
06:40 AM 63.0°F17.2°C 60.9°F16.1°C 93% 7.7 mph WSW12.4 kmh WSW 25.8 mph41.5 kmh 29.71 in1006.1 mb 0.05 in1.3 mm 0.00 in0.0 mm 0.28 in7.1 mm
06:50 AM 63.1°F17.3°C 61.1°F16.2°C 93% 6.9 mph WSW11.1 kmh WSW 16.1 mph25.9 kmh 29.71 in1006.1 mb 0.05 in1.3 mm 0.00 in0.0 mm 0.28 in7.1 mm
07:00 AM 63.1°F17.3°C 60.8°F16.0°C 92% 6.9 mph SW11.1 kmh SW 20.4 mph32.8 kmh 29.74 in1007.1 mb 0.10 in2.5 mm 0.06 in1.5 mm 0.33 in8.4 mm
07:10 AM 63.0°F17.2°C 60.6°F15.9°C 92% 6.4 mph WSW10.3 kmh WSW 15.4 mph24.8 kmh 29.74 in1007.1 mb 0.10 in2.5 mm 0.00 in0.0 mm 0.33 in8.4 mm
07:20 AM 63.5°F17.5°C 61.1°F16.2°C 92% 8.9 mph WSW14.3 kmh WSW 23.3 mph37.5 kmh 29.71 in1006.1 mb 0.10 in2.5 mm 0.00 in0.0 mm 0.33 in8.4 mm
07:30 AM 63.5°F17.5°C 60.8°F16.0°C 91% 10.2 mph WSW16.4 kmh WSW 24.7 mph39.8 kmh 29.71 in1006.1 mb 0.06 in1.5 mm 0.00 in0.0 mm 0.33 in8.4 mm
07:40 AM 63.3°F17.4°C 60.0°F15.6°C 89% 7.5 mph SW12.1 kmh SW 14.0 mph22.5 kmh 29.71 in1006.1 mb 0.06 in1.5 mm 0.00 in0.0 mm 0.33 in8.4 mm
07:50 AM 63.0°F17.2°C 59.3°F15.2°C 88% 5.0 mph WSW8.0 kmh WSW 10.4 mph16.7 kmh 29.74 in1007.1 mb 0.06 in1.5 mm 0.00 in0.0 mm 0.33 in8.4 mm
08:00 AM 63.1°F17.3°C 59.5°F15.3°C 88% 5.0 mph WSW8.0 kmh WSW 9.3 mph15.0 kmh 29.74 in1007.1 mb 0.00 in0.0 mm 0.00 in0.0 mm 0.33 in8.4 mm
08:10 AM 63.5°F17.5°C 59.9°F15.5°C 88% 6.8 mph WSW10.9 kmh WSW 20.4 mph32.8 kmh 29.74 in1007.1 mb 0.00 in0.0 mm 0.00 in0.0 mm 0.33 in8.4 mm
08:20 AM 64.9°F18.3°C 60.0°F15.6°C 84% 11.3 mph SW18.2 kmh SW 31.5 mph50.7 kmh 29.74 in1007.1 mb 0.00 in0.0 mm 0.00 in0.0 mm 0.33 in8.4 mm
08:30 AM 65.7°F18.7°C 60.7°F15.9°C 84% 8.7 mph SW14.0 kmh SW 20.8 mph33.5 kmh 29.74 in1007.1 mb 0.00 in0.0 mm 0.00 in0.0 mm 0.33 in8.4 mm
08:40 AM 66.0°F18.9°C 60.0°F15.6°C 81% 10.1 mph SSW16.3 kmh SSW 23.6 mph38.0 kmh 29.74 in1007.1 mb 0.00 in0.0 mm 0.00 in0.0 mm 0.33 in8.4 mm
08:50 AM 66.0°F18.9°C 59.7°F15.4°C 80% 9.4 mph SSW15.1 kmh SSW 21.1 mph34.0 kmh 29.77 in1008.1 mb 0.00 in0.0 mm 0.00 in0.0 mm 0.33 in8.4 mm
09:00 AM 66.6°F19.2°C 59.5°F15.3°C 78% 8.9 mph SSW14.3 kmh SSW 20.8 mph33.5 kmh 29.77 in1008.1 mb 0.00 in0.0 mm 0.00 in0.0 mm 0.33 in8.4 mm
09:10 AM 66.6°F19.2°C 58.4°F14.7°C 75% 11.4 mph S18.3 kmh S 24.3 mph39.1 kmh 29.77 in1008.1 mb 0.00 in0.0 mm 0.00 in0.0 mm 0.33 in8.4 mm
09:20 AM 66.2°F19.0°C 58.4°F14.7°C 76% 12.3 mph S19.8 kmh S 37.2 mph59.9 kmh 29.77 in1008.1 mb 0.00 in0.0 mm 0.00 in0.0 mm 0.33 in8.4 mm
09:30 AM 66.2°F19.0°C 58.4°F14.7°C 76% 12.1 mph SSW19.5 kmh SSW 22.9 mph36.9 kmh 29.77 in1008.1 mb 0.00 in0.0 mm 0.00 in0.0 mm 0.33 in8.4 mm
09:40 AM 66.4°F19.1°C 58.2°F14.6°C 75% 10.8 mph SSW17.4 kmh SSW 28.3 mph45.5 kmh 29.77 in1008.1 mb 0.00 in0.0 mm 0.00 in0.0 mm 0.33 in8.4 mm
09:50 AM 66.6°F19.2°C 58.0°F14.4°C 74% 7.3 mph SSW11.7 kmh SSW 20.8 mph33.5 kmh 29.77 in1008.1 mb 0.00 in0.0 mm 0.00 in0.0 mm 0.33 in8.4 mm
10:00 AM 67.1°F19.5°C 58.9°F14.9°C 75% 9.2 mph SW14.8 kmh SW 23.3 mph37.5 kmh 29.77 in1008.1 mb 0.00 in0.0 mm 0.00 in0.0 mm 0.33 in8.4 mm
10:10 AM 67.1°F19.5°C 58.2°F14.6°C 73% 8.9 mph SSW14.3 kmh SSW 20.8 mph33.5 kmh 29.77 in1008.1 mb 0.00 in0.0 mm 0.00 in0.0 mm 0.33 in8.4 mm
10:20 AM 67.3°F19.6°C 58.3°F14.6°C 73% 10.1 mph WSW16.3 kmh WSW 24.7 mph39.8 kmh 29.77 in1008.1 mb 0.00 in0.0 mm 0.00 in0.0 mm 0.33 in8.4 mm
10:30 AM 67.8°F19.9°C 58.8°F14.9°C 73% 9.5 mph SW15.3 kmh SW 26.8 mph43.1 kmh 29.77 in1008.1 mb 0.00 in0.0 mm 0.00 in0.0 mm 0.33 in8.4 mm
10:40 AM 68.2°F20.1°C 58.4°F14.7°C 71% 9.9 mph SW15.9 kmh SW 23.6 mph38.0 kmh 29.77 in1008.1 mb 0.00 in0.0 mm 0.00 in0.0 mm 0.33 in8.4 mm
10:50 AM 68.2°F20.1°C 58.8°F14.9°C 72% 8.7 mph SSW14.0 kmh SSW 17.5 mph28.2 kmh 29.77 in1008.1 mb 0.00 in0.0 mm 0.00 in0.0 mm 0.33 in8.4 mm
11:00 AM 68.0°F20.0°C 58.2°F14.6°C 71% 7.2 mph SW11.6 kmh SW 15.7 mph25.3 kmh 29.77 in1008.1 mb 0.00 in0.0 mm 0.00 in0.0 mm 0.33 in8.4 mm
11:10 AM 68.0°F20.0°C 57.8°F14.3°C 70% 10.3 mph WSW16.6 kmh WSW 27.6 mph44.4 kmh 29.77 in1008.1 mb 0.00 in0.0 mm 0.00 in0.0 mm 0.33 in8.4 mm
11:20 AM 68.4°F20.2°C 57.4°F14.1°C 68% 10.9 mph SW17.5 kmh SW 22.5 mph36.2 kmh 29.80 in1009.1 mb 0.00 in0.0 mm 0.00 in0.0 mm 0.33 in8.4 mm
11:30 AM 67.8°F19.9°C 56.9°F13.8°C 68% 9.0 mph WSW14.5 kmh WSW 23.6 mph38.0 kmh 29.80 in1009.1 mb 0.00 in0.0 mm 0.00 in0.0 mm 0.33 in8.4 mm
11:40 AM 68.9°F20.5°C 58.7°F14.8°C 70% 10.3 mph WSW16.6 kmh WSW 24.3 mph39.1 kmh 29.80 in1009.1 mb 0.00 in0.0 mm 0.00 in0.0 mm 0.33 in8.4 mm
11:50 AM 68.7°F20.4°C 56.9°F13.8°C 66% 11.8 mph SW19.0 kmh SW 31.5 mph50.7 kmh 29.80 in1009.1 mb 0.00 in0.0 mm 0.00 in0.0 mm 0.33 in8.4 mm
12:00 PM 69.1°F20.6°C 57.7°F14.3°C 67% 10.4 mph SSW16.7 kmh SSW 25.1 mph40.4 kmh 29.80 in1009.1 mb 0.00 in0.0 mm 0.00 in0.0 mm 0.33 in8.4 mm
12:10 PM 68.7°F20.4°C 56.9°F13.8°C 66% 9.9 mph SSW15.9 kmh SSW 19.7 mph31.7 kmh 29.80 in1009.1 mb 0.00 in0.0 mm 0.00 in0.0 mm 0.33 in8.4 mm
12:20 PM 68.4°F20.2°C 56.6°F13.7°C 66% 9.6 mph WSW15.4 kmh WSW 19.3 mph31.1 kmh 29.80 in1009.1 mb 0.00 in0.0 mm 0.00 in0.0 mm 0.33 in8.4 mm
12:30 PM 68.4°F20.2°C 56.1°F13.4°C 65% 11.3 mph WSW18.2 kmh WSW 25.1 mph40.4 kmh 29.80 in1009.1 mb 0.00 in0.0 mm 0.00 in0.0 mm 0.33 in8.4 mm
12:40 PM 68.0°F20.0°C 55.8°F13.2°C 65% 9.2 mph SSW14.8 kmh SSW 23.6 mph38.0 kmh 29.80 in1009.1 mb 0.00 in0.0 mm 0.00 in0.0 mm 0.33 in8.4 mm
12:50 PM 68.2°F20.1°C 56.0°F13.3°C 65% 11.8 mph SW19.0 kmh SW 21.8 mph35.1 kmh 29.80 in1009.1 mb 0.00 in0.0 mm 0.00 in0.0 mm 0.33 in8.4 mm
01:00 PM 68.0°F20.0°C 56.2°F13.4°C 66% 6.5 mph SW10.5 kmh SW 20.0 mph32.2 kmh 29.83 in1010.2 mb 0.00 in0.0 mm 0.00 in0.0 mm 0.33 in8.4 mm
01:10 PM 68.2°F20.1°C 56.4°F13.6°C 66% 9.5 mph SW15.3 kmh SW 23.3 mph37.5 kmh 29.83 in1010.2 mb 0.00 in0.0 mm 0.00 in0.0 mm 0.33 in8.4 mm
01:20 PM 68.5°F20.3°C 56.3°F13.5°C 65% 9.9 mph WSW15.9 kmh WSW 16.5 mph26.6 kmh 29.80 in1009.1 mb 0.00 in0.0 mm 0.00 in0.0 mm 0.33 in8.4 mm
01:30 PM 68.7°F20.4°C 55.6°F13.1°C 63% 11.0 mph SW17.7 kmh SW 23.3 mph37.5 kmh 29.80 in1009.1 mb 0.00 in0.0 mm 0.00 in0.0 mm 0.33 in8.4 mm
01:40 PM 69.4°F20.8°C 56.7°F13.7°C 64% 9.7 mph SW15.6 kmh SW 27.9 mph44.9 kmh 29.80 in1009.1 mb 0.00 in0.0 mm 0.00 in0.0 mm 0.33 in8.4 mm
01:50 PM 69.1°F20.6°C 56.4°F13.6°C 64% 9.2 mph SW14.8 kmh SW 23.6 mph38.0 kmh 29.80 in1009.1 mb 0.00 in0.0 mm 0.00 in0.0 mm 0.33 in8.4 mm
02:00 PM 69.1°F20.6°C 56.0°F13.3°C 63% 7.5 mph SSW12.1 kmh SSW 16.8 mph27.0 kmh 29.80 in1009.1 mb 0.00 in0.0 mm 0.00 in0.0 mm 0.33 in8.4 mm
02:10 PM 69.6°F20.9°C 56.5°F13.6°C 63% 7.3 mph SW11.7 kmh SW 14.3 mph23.0 kmh 29.80 in1009.1 mb 0.00 in0.0 mm 0.00 in0.0 mm 0.33 in8.4 mm
02:20 PM 70.5°F21.4°C 57.3°F14.1°C 63% 9.4 mph SW15.1 kmh SW 20.8 mph33.5 kmh 29.80 in1009.1 mb 0.00 in0.0 mm 0.00 in0.0 mm 0.33 in8.4 mm
02:30 PM 71.1°F21.7°C 57.8°F14.3°C 63% 9.1 mph SSW14.6 kmh SSW 24.3 mph39.1 kmh 29.83 in1010.2 mb 0.00 in0.0 mm 0.00 in0.0 mm 0.33 in8.4 mm
02:40 PM 71.4°F21.9°C 57.3°F14.1°C 61% 11.2 mph SW18.0 kmh SW 25.1 mph40.4 kmh 29.83 in1010.2 mb 0.00 in0.0 mm 0.00 in0.0 mm 0.33 in8.4 mm
02:50 PM 71.2°F21.8°C 57.1°F13.9°C 61% 10.0 mph SSW16.1 kmh SSW 20.4 mph32.8 kmh 29.83 in1010.2 mb 0.00 in0.0 mm 0.00 in0.0 mm 0.33 in8.4 mm
03:00 PM 71.2°F21.8°C 57.5°F14.2°C 62% 10.6 mph SSW17.1 kmh SSW 26.8 mph43.1 kmh 29.83 in1010.2 mb 0.00 in0.0 mm 0.00 in0.0 mm 0.33 in8.4 mm
03:10 PM 71.2°F21.8°C 58.4°F14.7°C 64% 10.1 mph SW16.3 kmh SW 22.9 mph36.9 kmh 29.83 in1010.2 mb 0.00 in0.0 mm 0.00 in0.0 mm 0.33 in8.4 mm
03:20 PM 71.2°F21.8°C 58.9°F14.9°C 65% 10.1 mph SSW16.3 kmh SSW 22.2 mph35.7 kmh 29.83 in1010.2 mb 0.00 in0.0 mm 0.00 in0.0 mm 0.33 in8.4 mm
03:30 PM 71.1°F21.7°C 58.7°F14.8°C 65% 10.0 mph S16.1 kmh S 21.8 mph35.1 kmh 29.83 in1010.2 mb 0.00 in0.0 mm 0.00 in0.0 mm 0.33 in8.4 mm
03:40 PM 70.7°F21.5°C 58.4°F14.7°C 65% 11.2 mph S18.0 kmh S 30.4 mph48.9 kmh 29.83 in1010.2 mb 0.00 in0.0 mm 0.00 in0.0 mm 0.33 in8.4 mm
03:50 PM 70.7°F21.5°C 58.4°F14.7°C 65% 9.5 mph SSW15.3 kmh SSW 21.1 mph34.0 kmh 29.83 in1010.2 mb 0.00 in0.0 mm 0.00 in0.0 mm 0.33 in8.4 mm
04:00 PM 70.7°F21.5°C 58.4°F14.7°C 65% 10.5 mph SSW16.9 kmh SSW 20.4 mph32.8 kmh 29.83 in1010.2 mb 0.00 in0.0 mm 0.00 in0.0 mm 0.33 in8.4 mm
04:10 PM 70.5°F21.4°C 57.8°F14.3°C 64% 10.6 mph SSW17.1 kmh SSW 23.6 mph38.0 kmh 29.83 in1010.2 mb 0.00 in0.0 mm 0.00 in0.0 mm 0.33 in8.4 mm
04:20 PM 70.3°F21.3°C 57.6°F14.2°C 64% 9.3 mph S15.0 kmh S 20.0 mph32.2 kmh 29.83 in1010.2 mb 0.00 in0.0 mm 0.00 in0.0 mm 0.33 in8.4 mm
04:30 PM 70.3°F21.3°C 57.6°F14.2°C 64% 9.8 mph SW15.8 kmh SW 20.0 mph32.2 kmh 29.80 in1009.1 mb 0.00 in0.0 mm 0.00 in0.0 mm 0.33 in8.4 mm
04:40 PM 70.3°F21.3°C 57.6°F14.2°C 64% 8.8 mph SSW14.2 kmh SSW 22.2 mph35.7 kmh 29.80 in1009.1 mb 0.00 in0.0 mm 0.00 in0.0 mm 0.33 in8.4 mm
04:50 PM 70.3°F21.3°C 57.6°F14.2°C 64% 9.1 mph SW14.6 kmh SW 24.3 mph39.1 kmh 29.80 in1009.1 mb 0.00 in0.0 mm 0.00 in0.0 mm 0.33 in8.4 mm
05:00 PM 70.2°F21.2°C 57.4°F14.1°C 64% 9.3 mph WSW15.0 kmh WSW 20.4 mph32.8 kmh 29.80 in1009.1 mb 0.00 in0.0 mm 0.00 in0.0 mm 0.33 in8.4 mm
05:10 PM 70.3°F21.3°C 57.1°F13.9°C 63% 9.0 mph WSW14.5 kmh WSW 19.7 mph31.7 kmh 29.80 in1009.1 mb 0.00 in0.0 mm 0.00 in0.0 mm 0.33 in8.4 mm
05:20 PM 70.0°F21.1°C 56.4°F13.6°C 62% 10.8 mph WSW17.4 kmh WSW 19.3 mph31.1 kmh 29.80 in1009.1 mb 0.00 in0.0 mm 0.00 in0.0 mm 0.33 in8.4 mm
05:30 PM 69.8°F21.0°C 56.2°F13.4°C 62% 7.4 mph SSW11.9 kmh SSW 15.4 mph24.8 kmh 29.83 in1010.2 mb 0.00 in0.0 mm 0.00 in0.0 mm 0.33 in8.4 mm
05:40 PM 69.6°F20.9°C 56.0°F13.3°C 62% 7.7 mph SSW12.4 kmh SSW 15.4 mph24.8 kmh 29.83 in1010.2 mb 0.00 in0.0 mm 0.00 in0.0 mm 0.33 in8.4 mm
05:50 PM 69.3°F20.7°C 56.1°F13.4°C 63% 8.6 mph SSW13.8 kmh SSW 17.5 mph28.2 kmh 29.83 in1010.2 mb 0.00 in0.0 mm 0.00 in0.0 mm 0.33 in8.4 mm
06:00 PM 68.9°F20.5°C 56.2°F13.4°C 64% 9.1 mph WSW14.6 kmh WSW 19.7 mph31.7 kmh 29.83 in1010.2 mb 0.00 in0.0 mm 0.00 in0.0 mm 0.33 in8.4 mm
06:10 PM 68.5°F20.3°C 55.9°F13.3°C 64% 7.5 mph SW12.1 kmh SW 19.0 mph30.6 kmh 29.83 in1010.2 mb 0.00 in0.0 mm 0.00 in0.0 mm 0.33 in8.4 mm
06:20 PM 68.2°F20.1°C 56.0°F13.3°C 65% 7.0 mph S11.3 kmh S 23.3 mph37.5 kmh 29.83 in1010.2 mb 0.00 in0.0 mm 0.00 in0.0 mm 0.33 in8.4 mm
06:30 PM 67.8°F19.9°C 56.0°F13.3°C 66% 6.8 mph WSW10.9 kmh WSW 15.7 mph25.3 kmh 29.83 in1010.2 mb 0.00 in0.0 mm 0.00 in0.0 mm 0.33 in8.4 mm
06:40 PM 67.3°F19.6°C 55.5°F13.1°C 66% 8.2 mph SW13.2 kmh SW 19.7 mph31.7 kmh 29.83 in1010.2 mb 0.00 in0.0 mm 0.00 in0.0 mm 0.33 in8.4 mm
06:50 PM 66.7°F19.3°C 55.4°F13.0°C 67% 7.5 mph S12.1 kmh S 17.5 mph28.2 kmh 29.83 in1010.2 mb 0.00 in0.0 mm 0.00 in0.0 mm 0.33 in8.4 mm
07:00 PM 66.4°F19.1°C 55.5°F13.1°C 68% 6.5 mph SSW10.5 kmh SSW 17.2 mph27.7 kmh 29.83 in1010.2 mb 0.00 in0.0 mm 0.00 in0.0 mm 0.33 in8.4 mm
07:10 PM 66.0°F18.9°C 55.6°F13.1°C 69% 5.3 mph SSW8.5 kmh SSW 17.2 mph27.7 kmh 29.83 in1010.2 mb 0.00 in0.0 mm 0.00 in0.0 mm 0.33 in8.4 mm
07:20 PM 65.7°F18.7°C 55.6°F13.1°C 70% 8.0 mph SSW12.9 kmh SSW 21.1 mph34.0 kmh 29.83 in1010.2 mb 0.00 in0.0 mm 0.00 in0.0 mm 0.33 in8.4 mm
07:30 PM 65.5°F18.6°C 55.8°F13.2°C 71% 6.3 mph S10.1 kmh S 16.5 mph26.6 kmh 29.83 in1010.2 mb 0.00 in0.0 mm 0.00 in0.0 mm 0.33 in8.4 mm
07:40 PM 65.3°F18.5°C 56.0°F13.3°C 72% 6.8 mph S10.9 kmh S 16.8 mph27.0 kmh 29.83 in1010.2 mb 0.00 in0.0 mm 0.00 in0.0 mm 0.33 in8.4 mm
07:50 PM 65.1°F18.4°C 56.2°F13.4°C 73% 6.3 mph SSW10.1 kmh SSW 12.5 mph20.1 kmh 29.83 in1010.2 mb 0.00 in0.0 mm 0.00 in0.0 mm 0.33 in8.4 mm
08:00 PM 64.8°F18.2°C 55.9°F13.3°C 73% 5.7 mph S9.2 kmh S 12.5 mph20.1 kmh 29.86 in1011.2 mb 0.00 in0.0 mm 0.00 in0.0 mm 0.33 in8.4 mm
08:10 PM 64.6°F18.1°C 55.7°F13.2°C 73% 7.9 mph SW12.7 kmh SW 19.7 mph31.7 kmh 29.86 in1011.2 mb 0.00 in0.0 mm 0.00 in0.0 mm 0.33 in8.4 mm
08:20 PM 64.4°F18.0°C 55.6°F13.1°C 73% 5.7 mph WSW9.2 kmh WSW 12.2 mph19.6 kmh 29.86 in1011.2 mb 0.00 in0.0 mm 0.00 in0.0 mm 0.33 in8.4 mm
08:30 PM 64.2°F17.9°C 55.4°F13.0°C 73% 6.0 mph S9.7 kmh S 17.5 mph28.2 kmh 29.83 in1010.2 mb 0.00 in0.0 mm 0.00 in0.0 mm 0.33 in8.4 mm
08:40 PM 64.0°F17.8°C 55.6°F13.1°C 74% 8.0 mph SSW12.9 kmh SSW 16.1 mph25.9 kmh 29.83 in1010.2 mb 0.00 in0.0 mm 0.00 in0.0 mm 0.33 in8.4 mm
08:50 PM 64.0°F17.8°C 55.6°F13.1°C 74% 6.2 mph S10.0 kmh S 16.1 mph25.9 kmh 29.83 in1010.2 mb 0.00 in0.0 mm 0.00 in0.0 mm 0.33 in8.4 mm
09:00 PM 63.9°F17.7°C 55.4°F13.0°C 74% 6.0 mph S9.7 kmh S 17.5 mph28.2 kmh 29.83 in1010.2 mb 0.00 in0.0 mm 0.00 in0.0 mm 0.33 in8.4 mm
09:10 PM 63.7°F17.6°C 55.2°F12.9°C 74% 5.1 mph SSE8.2 kmh SSE 12.2 mph19.6 kmh 29.83 in1010.2 mb 0.00 in0.0 mm 0.00 in0.0 mm 0.33 in8.4 mm
09:20 PM 63.7°F17.6°C 55.2°F12.9°C 74% 5.7 mph SW9.2 kmh SW 15.0 mph24.1 kmh 29.86 in1011.2 mb 0.00 in0.0 mm 0.00 in0.0 mm 0.33 in8.4 mm
09:30 PM 63.7°F17.6°C 54.9°F12.7°C 73% 5.4 mph WSW8.7 kmh WSW 11.8 mph19.0 kmh 29.86 in1011.2 mb 0.00 in0.0 mm 0.00 in0.0 mm 0.33 in8.4 mm
09:40 PM 63.9°F17.7°C 55.0°F12.8°C 73% 5.9 mph WSW9.5 kmh WSW 14.0 mph22.5 kmh 29.86 in1011.2 mb 0.00 in0.0 mm 0.00 in0.0 mm 0.33 in8.4 mm
09:50 PM 63.9°F17.7°C 55.0°F12.8°C 73% 6.5 mph SSW10.5 kmh SSW 11.5 mph18.5 kmh 29.86 in1011.2 mb 0.00 in0.0 mm 0.00 in0.0 mm 0.33 in8.4 mm
10:00 PM 63.9°F17.7°C 55.0°F12.8°C 73% 5.2 mph SSW8.4 kmh SSW 12.5 mph20.1 kmh 29.86 in1011.2 mb 0.00 in0.0 mm 0.00 in0.0 mm 0.33 in8.4 mm
10:10 PM 64.0°F17.8°C 54.8°F12.7°C 72% 6.9 mph S11.1 kmh S 15.7 mph25.3 kmh 29.86 in1011.2 mb 0.00 in0.0 mm 0.00 in0.0 mm 0.33 in8.4 mm
10:20 PM 64.0°F17.8°C 54.8°F12.7°C 72% 5.8 mph WSW9.3 kmh WSW 10.0 mph16.1 kmh 29.86 in1011.2 mb 0.00 in0.0 mm 0.00 in0.0 mm 0.33 in8.4 mm
10:30 PM 64.0°F17.8°C 54.8°F12.7°C 72% 5.0 mph S8.0 kmh S 7.9 mph12.7 kmh 29.86 in1011.2 mb 0.00 in0.0 mm 0.00 in0.0 mm 0.33 in8.4 mm
10:40 PM 64.0°F17.8°C 53.7°F12.1°C 69% 6.0 mph WSW9.7 kmh WSW 10.0 mph16.1 kmh 29.86 in1011.2 mb 0.00 in0.0 mm 0.00 in0.0 mm 0.33 in8.4 mm
10:50 PM 64.0°F17.8°C 54.1°F12.3°C 70% 5.1 mph SW8.2 kmh SW 13.6 mph21.9 kmh 29.86 in1011.2 mb 0.00 in0.0 mm 0.00 in0.0 mm 0.33 in8.4 mm
11:00 PM 64.0°F17.8°C 54.1°F12.3°C 70% 5.4 mph SSW8.7 kmh SSW 12.2 mph19.6 kmh 29.86 in1011.2 mb 0.00 in0.0 mm 0.00 in0.0 mm 0.33 in8.4 mm
11:10 PM 63.9°F17.7°C 53.9°F12.2°C 70% 6.3 mph WSW10.1 kmh WSW 12.9 mph20.8 kmh 29.86 in1011.2 mb 0.00 in0.0 mm 0.00 in0.0 mm 0.33 in8.4 mm
11:20 PM 63.9°F17.7°C 53.9°F12.2°C 70% 4.9 mph SW7.9 kmh SW 13.6 mph21.9 kmh 29.86 in1011.2 mb 0.00 in0.0 mm 0.00 in0.0 mm 0.33 in8.4 mm
11:30 PM 63.7°F17.6°C 54.1°F12.3°C 71% 4.6 mph SW7.4 kmh SW 9.7 mph15.6 kmh 29.86 in1011.2 mb 0.00 in0.0 mm 0.00 in0.0 mm 0.33 in8.4 mm
11:40 PM 63.7°F17.6°C 54.5°F12.5°C 72% 4.9 mph SSW7.9 kmh SSW 11.5 mph18.5 kmh 29.86 in1011.2 mb 0.00 in0.0 mm 0.00 in0.0 mm 0.33 in8.4 mm
11:50 PM 63.7°F17.6°C 54.9°F12.7°C 73% 6.7 mph SSW10.8 kmh SSW 15.0 mph24.1 kmh 29.86 in1011.2 mb 0.00 in0.0 mm 0.00 in0.0 mm 0.33 in8.4 mm